sensor_id;sensor_type;location;lat;lon;timestamp;P1;durP1;ratioP1;P2;durP2;ratioP2
48797;SDS011;34610;44.096;39.070;2023-01-26T00:01:41;26.35;;;9.52;;
48797;SDS011;34610;44.096;39.070;2023-01-26T00:04:47;24.08;;;9.65;;
48797;SDS011;34610;44.096;39.070;2023-01-26T00:07:52;22.00;;;8.50;;
48797;SDS011;34610;44.096;39.070;2023-01-26T00:11:05;23.13;;;9.63;;
48797;SDS011;34610;44.096;39.070;2023-01-26T00:14:10;14.15;;;6.38;;
48797;SDS011;34610;44.096;39.070;2023-01-26T00:17:28;17.65;;;7.45;;
48797;SDS011;34610;44.096;39.070;2023-01-26T00:20:42;22.33;;;8.15;;
48797;SDS011;34610;44.096;39.070;2023-01-26T00:23:46;19.63;;;9.27;;
48797;SDS011;34610;44.096;39.070;2023-01-26T00:26:51;19.70;;;6.95;;
48797;SDS011;34610;44.096;39.070;2023-01-26T00:30:01;20.63;;;9.93;;
48797;SDS011;34610;44.096;39.070;2023-01-26T00:33:12;17.98;;;6.13;;
48797;SDS011;34610;44.096;39.070;2023-01-26T00:36:19;10.57;;;6.20;;
48797;SDS011;34610;44.096;39.070;2023-01-26T00:39:25;13.75;;;5.15;;
48797;SDS011;34610;44.096;39.070;2023-01-26T00:42:32;19.55;;;8.48;;
48797;SDS011;34610;44.096;39.070;2023-01-26T00:45:37;12.18;;;5.80;;
48797;SDS011;34610;44.096;39.070;2023-01-26T00:48:45;19.52;;;8.50;;
48797;SDS011;34610;44.096;39.070;2023-01-26T00:51:53;23.67;;;9.80;;
48797;SDS011;34610;44.096;39.070;2023-01-26T00:55:00;22.50;;;9.93;;
48797;SDS011;34610;44.096;39.070;2023-01-26T00:58:10;22.17;;;9.45;;
48797;SDS011;34610;44.096;39.070;2023-01-26T01:01:15;12.80;;;5.45;;
48797;SDS011;34610;44.096;39.070;2023-01-26T01:04:19;23.52;;;8.60;;
48797;SDS011;34610;44.096;39.070;2023-01-26T01:07:25;21.80;;;8.18;;
48797;SDS011;34610;44.096;39.070;2023-01-26T01:10:29;14.10;;;6.78;;
48797;SDS011;34610;44.096;39.070;2023-01-26T01:13:37;11.40;;;4.75;;
48797;SDS011;34610;44.096;39.070;2023-01-26T01:16:42;22.95;;;7.95;;
48797;SDS011;34610;44.096;39.070;2023-01-26T01:19:48;17.20;;;7.63;;
48797;SDS011;34610;44.096;39.070;2023-01-26T01:22:58;13.95;;;6.82;;
48797;SDS011;34610;44.096;39.070;2023-01-26T01:26:04;20.65;;;8.02;;
48797;SDS011;34610;44.096;39.070;2023-01-26T01:29:10;17.40;;;7.38;;
48797;SDS011;34610;44.096;39.070;2023-01-26T01:32:17;16.58;;;6.63;;
48797;SDS011;34610;44.096;39.070;2023-01-26T01:35:23;20.00;;;8.50;;
48797;SDS011;34610;44.096;39.070;2023-01-26T01:38:37;24.98;;;9.30;;
48797;SDS011;34610;44.096;39.070;2023-01-26T01:41:41;17.45;;;7.55;;
48797;SDS011;34610;44.096;39.070;2023-01-26T01:44:46;23.42;;;8.50;;
48797;SDS011;34610;44.096;39.070;2023-01-26T01:48:16;13.63;;;7.55;;
48797;SDS011;34610;44.096;39.070;2023-01-26T01:51:35;22.40;;;7.22;;
48797;SDS011;34610;44.096;39.070;2023-01-26T01:54:44;21.20;;;9.02;;
48797;SDS011;34610;44.096;39.070;2023-01-26T01:57:54;19.38;;;8.95;;
48797;SDS011;34610;44.096;39.070;2023-01-26T02:01:01;15.70;;;6.35;;
48797;SDS011;34610;44.096;39.070;2023-01-26T02:04:05;21.88;;;8.57;;
48797;SDS011;34610;44.096;39.070;2023-01-26T02:07:16;21.38;;;8.93;;
48797;SDS011;34610;44.096;39.070;2023-01-26T02:10:21;16.08;;;7.63;;
48797;SDS011;34610;44.096;39.070;2023-01-26T02:13:26;21.55;;;8.98;;
48797;SDS011;34610;44.096;39.070;2023-01-26T02:16:31;13.48;;;6.35;;
48797;SDS011;34610;44.096;39.070;2023-01-26T02:19:38;16.30;;;7.30;;
48797;SDS011;34610;44.096;39.070;2023-01-26T02:29:06;12.07;;;5.72;;
48797;SDS011;34610;44.096;39.070;2023-01-26T02:32:20;16.33;;;6.68;;
48797;SDS011;34610;44.096;39.070;2023-01-26T02:35:29;9.38;;;4.95;;
48797;SDS011;34610;44.096;39.070;2023-01-26T02:38:39;13.27;;;6.05;;
48797;SDS011;34610;44.096;39.070;2023-01-26T02:41:45;13.43;;;4.65;;
48797;SDS011;34610;44.096;39.070;2023-01-26T02:45:14;17.48;;;7.35;;
48797;SDS011;34610;44.096;39.070;2023-01-26T02:48:20;15.85;;;6.97;;
48797;SDS011;34610;44.096;39.070;2023-01-26T02:51:43;17.60;;;6.25;;
48797;SDS011;34610;44.096;39.070;2023-01-26T02:54:51;19.67;;;7.13;;
48797;SDS011;34610;44.096;39.070;2023-01-26T02:58:15;17.05;;;5.65;;
48797;SDS011;34610;44.096;39.070;2023-01-26T03:01:19;18.85;;;7.13;;
48797;SDS011;34610;44.096;39.070;2023-01-26T03:04:24;14.48;;;6.75;;
48797;SDS011;34610;44.096;39.070;2023-01-26T03:10:38;2.90;;;2.30;;
48797;SDS011;34610;44.096;39.070;2023-01-26T03:13:46;9.93;;;5.32;;
48797;SDS011;34610;44.096;39.070;2023-01-26T03:16:55;15.52;;;6.15;;
48797;SDS011;34610;44.096;39.070;2023-01-26T03:19:59;19.48;;;7.00;;
48797;SDS011;34610;44.096;39.070;2023-01-26T03:23:23;17.13;;;7.47;;
48797;SDS011;34610;44.096;39.070;2023-01-26T03:26:51;14.52;;;5.88;;
48797;SDS011;34610;44.096;39.070;2023-01-26T03:30:15;20.27;;;7.55;;
48797;SDS011;34610;44.096;39.070;2023-01-26T03:33:24;24.77;;;6.97;;
48797;SDS011;34610;44.096;39.070;2023-01-26T03:36:31;14.63;;;6.00;;
48797;SDS011;34610;44.096;39.070;2023-01-26T03:39:36;14.52;;;6.28;;
48797;SDS011;34610;44.096;39.070;2023-01-26T03:43:05;20.40;;;6.97;;
48797;SDS011;34610;44.096;39.070;2023-01-26T03:46:31;15.68;;;6.25;;
48797;SDS011;34610;44.096;39.070;2023-01-26T03:49:55;12.68;;;5.95;;
48797;SDS011;34610;44.096;39.070;2023-01-26T03:53:18;21.90;;;8.30;;
48797;SDS011;34610;44.096;39.070;2023-01-26T03:56:45;23.42;;;7.95;;
48797;SDS011;34610;44.096;39.070;2023-01-26T03:59:52;28.70;;;8.43;;
48797;SDS011;34610;44.096;39.070;2023-01-26T04:03:00;25.92;;;8.77;;
48797;SDS011;34610;44.096;39.070;2023-01-26T04:06:23;15.80;;;7.43;;
48797;SDS011;34610;44.096;39.070;2023-01-26T04:09:48;26.98;;;7.85;;
48797;SDS011;34610;44.096;39.070;2023-01-26T04:12:53;21.83;;;7.18;;
48797;SDS011;34610;44.096;39.070;2023-01-26T04:16:24;19.40;;;7.32;;
48797;SDS011;34610;44.096;39.070;2023-01-26T04:19:47;16.48;;;6.78;;
48797;SDS011;34610;44.096;39.070;2023-01-26T04:23:16;17.80;;;8.13;;
48797;SDS011;34610;44.096;39.070;2023-01-26T04:26:25;24.15;;;8.27;;
48797;SDS011;34610;44.096;39.070;2023-01-26T04:29:31;21.50;;;7.78;;
48797;SDS011;34610;44.096;39.070;2023-01-26T04:32:37;25.98;;;8.35;;
48797;SDS011;34610;44.096;39.070;2023-01-26T04:35:43;37.90;;;13.60;;
48797;SDS011;34610;44.096;39.070;2023-01-26T04:38:50;16.67;;;7.03;;
48797;SDS011;34610;44.096;39.070;2023-01-26T04:41:57;21.33;;;7.13;;
48797;SDS011;34610;44.096;39.070;2023-01-26T04:45:02;15.40;;;6.55;;
48797;SDS011;34610;44.096;39.070;2023-01-26T04:48:08;12.52;;;5.25;;
48797;SDS011;34610;44.096;39.070;2023-01-26T04:51:15;15.48;;;6.30;;
48797;SDS011;34610;44.096;39.070;2023-01-26T04:54:25;17.00;;;6.75;;
48797;SDS011;34610;44.096;39.070;2023-01-26T04:57:33;20.80;;;8.30;;
48797;SDS011;34610;44.096;39.070;2023-01-26T05:00:41;15.23;;;6.07;;
48797;SDS011;34610;44.096;39.070;2023-01-26T05:03:49;22.05;;;7.68;;
48797;SDS011;34610;44.096;39.070;2023-01-26T05:06:55;4.05;;;2.72;;
48797;SDS011;34610;44.096;39.070;2023-01-26T05:10:05;11.68;;;5.90;;
48797;SDS011;34610;44.096;39.070;2023-01-26T05:13:45;19.08;;;7.38;;
48797;SDS011;34610;44.096;39.070;2023-01-26T05:20:39;16.35;;;7.00;;
48797;SDS011;34610;44.096;39.070;2023-01-26T05:23:53;6.45;;;3.17;;
48797;SDS011;34610;44.096;39.070;2023-01-26T05:27:25;17.30;;;5.20;;
48797;SDS011;34610;44.096;39.070;2023-01-26T05:30:38;8.05;;;3.78;;
48797;SDS011;34610;44.096;39.070;2023-01-26T05:33:49;9.82;;;4.10;;
48797;SDS011;34610;44.096;39.070;2023-01-26T05:37:00;12.30;;;6.30;;
48797;SDS011;34610;44.096;39.070;2023-01-26T05:40:14;10.25;;;3.47;;
48797;SDS011;34610;44.096;39.070;2023-01-26T05:43:22;17.20;;;5.80;;
48797;SDS011;34610;44.096;39.070;2023-01-26T05:46:54;13.80;;;4.30;;
48797;SDS011;34610;44.096;39.070;2023-01-26T05:50:07;16.13;;;6.78;;
48797;SDS011;34610;44.096;39.070;2023-01-26T05:53:13;14.25;;;5.65;;
48797;SDS011;34610;44.096;39.070;2023-01-26T05:56:18;6.28;;;3.60;;
48797;SDS011;34610;44.096;39.070;2023-01-26T05:59:36;6.80;;;3.42;;
48797;SDS011;34610;44.096;39.070;2023-01-26T06:02:44;14.82;;;4.07;;
48797;SDS011;34610;44.096;39.070;2023-01-26T06:09:29;17.52;;;6.97;;
48797;SDS011;34610;44.096;39.070;2023-01-26T06:13:07;11.57;;;5.45;;
48797;SDS011;34610;44.096;39.070;2023-01-26T06:16:27;20.33;;;7.18;;
48797;SDS011;34610;44.096;39.070;2023-01-26T06:19:40;12.23;;;5.03;;
48797;SDS011;34610;44.096;39.070;2023-01-26T06:22:45;9.07;;;4.32;;
48797;SDS011;34610;44.096;39.070;2023-01-26T06:25:50;18.33;;;6.15;;
48797;SDS011;34610;44.096;39.070;2023-01-26T06:29:02;13.57;;;4.95;;
48797;SDS011;34610;44.096;39.070;2023-01-26T06:32:13;16.65;;;7.18;;
48797;SDS011;34610;44.096;39.070;2023-01-26T06:35:37;17.40;;;4.93;;
48797;SDS011;34610;44.096;39.070;2023-01-26T06:38:48;10.73;;;5.43;;
48797;SDS011;34610;44.096;39.070;2023-01-26T06:41:52;17.02;;;5.45;;
48797;SDS011;34610;44.096;39.070;2023-01-26T06:45:00;22.48;;;6.72;;
48797;SDS011;34610;44.096;39.070;2023-01-26T06:48:07;10.90;;;4.50;;
48797;SDS011;34610;44.096;39.070;2023-01-26T06:54:19;20.13;;;6.15;;
48797;SDS011;34610;44.096;39.070;2023-01-26T06:58:09;12.23;;;4.72;;
48797;SDS011;34610;44.096;39.070;2023-01-26T07:05:39;15.82;;;6.78;;
48797;SDS011;34610;44.096;39.070;2023-01-26T07:08:50;15.10;;;6.28;;
48797;SDS011;34610;44.096;39.070;2023-01-26T07:22:43;11.38;;;5.53;;
48797;SDS011;34610;44.096;39.070;2023-01-26T07:29:31;20.63;;;8.18;;
48797;SDS011;34610;44.096;39.070;2023-01-26T07:32:35;17.02;;;7.22;;
48797;SDS011;34610;44.096;39.070;2023-01-26T07:39:35;17.10;;;7.70;;
48797;SDS011;34610;44.096;39.070;2023-01-26T07:43:02;16.58;;;7.53;;
48797;SDS011;34610;44.096;39.070;2023-01-26T07:46:25;16.40;;;6.32;;
48797;SDS011;34610;44.096;39.070;2023-01-26T07:49:52;14.85;;;6.13;;
48797;SDS011;34610;44.096;39.070;2023-01-26T07:53:01;19.17;;;7.85;;
48797;SDS011;34610;44.096;39.070;2023-01-26T07:56:07;17.58;;;8.30;;
48797;SDS011;34610;44.096;39.070;2023-01-26T07:59:12;15.50;;;6.93;;
48797;SDS011;34610;44.096;39.070;2023-01-26T08:02:18;19.10;;;7.45;;
48797;SDS011;34610;44.096;39.070;2023-01-26T08:05:23;19.60;;;8.07;;
48797;SDS011;34610;44.096;39.070;2023-01-26T08:08:31;18.27;;;7.75;;
48797;SDS011;34610;44.096;39.070;2023-01-26T08:11:39;20.95;;;7.57;;
48797;SDS011;34610;44.096;39.070;2023-01-26T08:18:18;14.77;;;7.13;;
48797;SDS011;34610;44.096;39.070;2023-01-26T08:22:33;20.17;;;8.00;;
48797;SDS011;34610;44.096;39.070;2023-01-26T08:26:23;18.25;;;7.03;;
48797;SDS011;34610;44.096;39.070;2023-01-26T08:33:09;17.08;;;7.03;;
48797;SDS011;34610;44.096;39.070;2023-01-26T08:36:28;14.98;;;6.78;;
48797;SDS011;34610;44.096;39.070;2023-01-26T08:39:33;20.90;;;7.50;;
48797;SDS011;34610;44.096;39.070;2023-01-26T08:42:39;17.58;;;7.47;;
48797;SDS011;34610;44.096;39.070;2023-01-26T08:46:04;16.92;;;8.10;;
48797;SDS011;34610;44.096;39.070;2023-01-26T08:49:08;18.65;;;8.77;;
48797;SDS011;34610;44.096;39.070;2023-01-26T08:52:17;15.55;;;7.57;;
48797;SDS011;34610;44.096;39.070;2023-01-26T08:55:26;15.35;;;6.78;;
48797;SDS011;34610;44.096;39.070;2023-01-26T08:58:51;14.25;;;7.18;;
48797;SDS011;34610;44.096;39.070;2023-01-26T09:02:00;14.13;;;7.13;;
48797;SDS011;34610;44.096;39.070;2023-01-26T09:05:10;13.63;;;6.30;;
48797;SDS011;34610;44.096;39.070;2023-01-26T09:08:16;12.40;;;6.88;;
48797;SDS011;34610;44.096;39.070;2023-01-26T09:11:21;13.88;;;6.50;;
48797;SDS011;34610;44.096;39.070;2023-01-26T09:14:29;11.02;;;5.78;;
48797;SDS011;34610;44.096;39.070;2023-01-26T09:17:49;15.80;;;6.45;;
48797;SDS011;34610;44.096;39.070;2023-01-26T09:21:03;13.07;;;5.78;;
48797;SDS011;34610;44.096;39.070;2023-01-26T09:24:15;15.88;;;6.47;;
48797;SDS011;34610;44.096;39.070;2023-01-26T09:27:21;14.18;;;7.47;;
48797;SDS011;34610;44.096;39.070;2023-01-26T09:30:26;13.13;;;6.00;;
48797;SDS011;34610;44.096;39.070;2023-01-26T09:33:43;12.55;;;6.35;;
48797;SDS011;34610;44.096;39.070;2023-01-26T09:41:02;11.02;;;5.95;;
48797;SDS011;34610;44.096;39.070;2023-01-26T09:44:09;15.13;;;6.55;;
48797;SDS011;34610;44.096;39.070;2023-01-26T09:47:29;13.70;;;6.68;;
48797;SDS011;34610;44.096;39.070;2023-01-26T09:50:45;14.50;;;7.10;;
48797;SDS011;34610;44.096;39.070;2023-01-26T09:54:11;13.25;;;6.15;;
48797;SDS011;34610;44.096;39.070;2023-01-26T09:57:27;14.63;;;7.15;;
48797;SDS011;34610;44.096;39.070;2023-01-26T10:00:56;16.58;;;6.68;;
48797;SDS011;34610;44.096;39.070;2023-01-26T10:04:05;12.80;;;5.65;;
48797;SDS011;34610;44.096;39.070;2023-01-26T10:07:22;12.30;;;5.68;;
48797;SDS011;34610;44.096;39.070;2023-01-26T10:10:31;12.45;;;6.07;;
48797;SDS011;34610;44.096;39.070;2023-01-26T10:13:40;12.00;;;5.90;;
48797;SDS011;34610;44.096;39.070;2023-01-26T10:16:55;13.27;;;6.20;;
48797;SDS011;34610;44.096;39.070;2023-01-26T10:23:26;11.48;;;6.57;;
48797;SDS011;34610;44.096;39.070;2023-01-26T10:26:32;12.45;;;6.10;;
48797;SDS011;34610;44.096;39.070;2023-01-26T10:29:37;14.80;;;7.63;;
48797;SDS011;34610;44.096;39.070;2023-01-26T10:32:54;11.27;;;6.32;;
48797;SDS011;34610;44.096;39.070;2023-01-26T10:35:59;13.15;;;6.05;;
48797;SDS011;34610;44.096;39.070;2023-01-26T10:39:08;15.05;;;6.50;;
48797;SDS011;34610;44.096;39.070;2023-01-26T10:46:22;12.35;;;5.57;;
48797;SDS011;34610;44.096;39.070;2023-01-26T10:49:26;9.13;;;5.40;;
48797;SDS011;34610;44.096;39.070;2023-01-26T10:52:36;7.82;;;4.82;;
48797;SDS011;34610;44.096;39.070;2023-01-26T10:55:56;10.57;;;5.97;;
48797;SDS011;34610;44.096;39.070;2023-01-26T10:59:06;11.65;;;6.30;;
48797;SDS011;34610;44.096;39.070;2023-01-26T11:02:24;8.75;;;5.18;;
48797;SDS011;34610;44.096;39.070;2023-01-26T11:05:30;14.38;;;6.22;;
48797;SDS011;34610;44.096;39.070;2023-01-26T11:08:36;11.25;;;7.38;;
48797;SDS011;34610;44.096;39.070;2023-01-26T11:11:42;11.70;;;7.10;;
48797;SDS011;34610;44.096;39.070;2023-01-26T11:15:02;9.98;;;6.00;;
48797;SDS011;34610;44.096;39.070;2023-01-26T11:18:14;11.88;;;7.63;;
48797;SDS011;34610;44.096;39.070;2023-01-26T11:34:44;17.27;;;8.05;;
48797;SDS011;34610;44.096;39.070;2023-01-26T11:37:55;10.23;;;5.47;;
48797;SDS011;34610;44.096;39.070;2023-01-26T11:48:00;13.73;;;6.13;;
48797;SDS011;34610;44.096;39.070;2023-01-26T11:51:23;13.77;;;6.10;;
48797;SDS011;34610;44.096;39.070;2023-01-26T12:05:53;11.88;;;5.60;;
48797;SDS011;34610;44.096;39.070;2023-01-26T12:12:04;14.70;;;7.47;;
48797;SDS011;34610;44.096;39.070;2023-01-26T12:15:31;9.35;;;5.43;;
48797;SDS011;34610;44.096;39.070;2023-01-26T12:18:40;11.15;;;5.57;;
48797;SDS011;34610;44.096;39.070;2023-01-26T12:21:51;11.00;;;5.35;;
48797;SDS011;34610;44.096;39.070;2023-01-26T12:28:23;10.50;;;5.90;;
48797;SDS011;34610;44.096;39.070;2023-01-26T12:34:47;16.02;;;7.95;;
48797;SDS011;34610;44.096;39.070;2023-01-26T12:38:07;10.50;;;5.80;;
48797;SDS011;34610;44.096;39.070;2023-01-26T12:41:37;15.27;;;6.00;;
48797;SDS011;34610;44.096;39.070;2023-01-26T12:44:57;12.30;;;5.47;;
48797;SDS011;34610;44.096;39.070;2023-01-26T12:48:15;9.57;;;5.13;;
48797;SDS011;34610;44.096;39.070;2023-01-26T12:51:25;12.88;;;7.22;;
48797;SDS011;34610;44.096;39.070;2023-01-26T12:57:38;14.10;;;7.28;;
48797;SDS011;34610;44.096;39.070;2023-01-26T13:00:58;13.43;;;5.97;;
48797;SDS011;34610;44.096;39.070;2023-01-26T13:04:12;9.20;;;5.38;;
48797;SDS011;34610;44.096;39.070;2023-01-26T13:07:37;13.35;;;5.95;;
48797;SDS011;34610;44.096;39.070;2023-01-26T13:10:43;11.73;;;5.60;;
48797;SDS011;34610;44.096;39.070;2023-01-26T13:13:58;16.00;;;6.18;;
48797;SDS011;34610;44.096;39.070;2023-01-26T13:23:59;12.85;;;6.55;;
48797;SDS011;34610;44.096;39.070;2023-01-26T13:27:15;10.00;;;5.88;;
48797;SDS011;34610;44.096;39.070;2023-01-26T13:30:33;13.20;;;5.93;;
48797;SDS011;34610;44.096;39.070;2023-01-26T13:33:40;11.75;;;5.72;;
48797;SDS011;34610;44.096;39.070;2023-01-26T13:36:44;13.85;;;6.43;;
48797;SDS011;34610;44.096;39.070;2023-01-26T13:39:51;15.27;;;8.02;;
48797;SDS011;34610;44.096;39.070;2023-01-26T13:46:37;13.13;;;5.65;;
48797;SDS011;34610;44.096;39.070;2023-01-26T13:49:45;17.50;;;5.78;;
48797;SDS011;34610;44.096;39.070;2023-01-26T13:52:52;15.38;;;6.55;;
48797;SDS011;34610;44.096;39.070;2023-01-26T13:55:58;10.68;;;5.75;;
48797;SDS011;34610;44.096;39.070;2023-01-26T13:59:04;17.55;;;7.30;;
48797;SDS011;34610;44.096;39.070;2023-01-26T14:02:26;21.20;;;9.93;;
48797;SDS011;34610;44.096;39.070;2023-01-26T14:05:37;30.95;;;8.65;;
48797;SDS011;34610;44.096;39.070;2023-01-26T14:08:50;15.10;;;6.38;;
48797;SDS011;34610;44.096;39.070;2023-01-26T14:12:00;15.07;;;6.32;;
48797;SDS011;34610;44.096;39.070;2023-01-26T14:15:27;26.20;;;9.55;;
48797;SDS011;34610;44.096;39.070;2023-01-26T14:18:40;20.13;;;8.27;;
48797;SDS011;34610;44.096;39.070;2023-01-26T14:24:57;17.60;;;7.30;;
48797;SDS011;34610;44.096;39.070;2023-01-26T14:28:03;23.02;;;8.07;;
48797;SDS011;34610;44.096;39.070;2023-01-26T14:34:26;19.80;;;6.72;;
48797;SDS011;34610;44.096;39.070;2023-01-26T14:37:34;15.77;;;6.93;;
48797;SDS011;34610;44.096;39.070;2023-01-26T14:40:46;22.40;;;8.07;;
48797;SDS011;34610;44.096;39.070;2023-01-26T14:43:51;17.10;;;8.05;;
48797;SDS011;34610;44.096;39.070;2023-01-26T14:47:01;23.75;;;8.25;;
48797;SDS011;34610;44.096;39.070;2023-01-26T14:53:31;58.50;;;21.27;;
48797;SDS011;34610;44.096;39.070;2023-01-26T14:56:39;67.25;;;28.90;;
48797;SDS011;34610;44.096;39.070;2023-01-26T14:59:47;78.63;;;32.55;;
48797;SDS011;34610;44.096;39.070;2023-01-26T15:02:58;80.95;;;32.63;;
48797;SDS011;34610;44.096;39.070;2023-01-26T15:06:05;80.38;;;32.95;;
48797;SDS011;34610;44.096;39.070;2023-01-26T15:09:26;80.25;;;30.65;;
48797;SDS011;34610;44.096;39.070;2023-01-26T15:12:33;62.15;;;27.50;;
48797;SDS011;34610;44.096;39.070;2023-01-26T15:15:42;62.65;;;24.80;;
48797;SDS011;34610;44.096;39.070;2023-01-26T15:18:58;75.85;;;29.58;;
48797;SDS011;34610;44.096;39.070;2023-01-26T15:22:02;80.72;;;30.38;;
48797;SDS011;34610;44.096;39.070;2023-01-26T15:25:17;85.50;;;34.97;;
48797;SDS011;34610;44.096;39.070;2023-01-26T15:28:34;93.47;;;38.38;;
48797;SDS011;34610;44.096;39.070;2023-01-26T15:31:52;87.18;;;35.75;;
48797;SDS011;34610;44.096;39.070;2023-01-26T15:35:06;101.47;;;38.63;;
48797;SDS011;34610;44.096;39.070;2023-01-26T15:38:14;114.95;;;41.05;;
48797;SDS011;34610;44.096;39.070;2023-01-26T15:49:59;85.68;;;33.67;;
48797;SDS011;34610;44.096;39.070;2023-01-26T15:53:53;77.22;;;30.35;;
48797;SDS011;34610;44.096;39.070;2023-01-26T15:57:02;75.28;;;29.63;;
48797;SDS011;34610;44.096;39.070;2023-01-26T16:00:07;73.88;;;31.38;;
48797;SDS011;34610;44.096;39.070;2023-01-26T16:03:29;83.53;;;31.30;;
48797;SDS011;34610;44.096;39.070;2023-01-26T16:06:39;77.88;;;29.40;;
48797;SDS011;34610;44.096;39.070;2023-01-26T16:09:44;71.53;;;28.13;;
48797;SDS011;34610;44.096;39.070;2023-01-26T16:12:51;73.78;;;30.65;;
48797;SDS011;34610;44.096;39.070;2023-01-26T16:15:58;76.18;;;30.58;;
48797;SDS011;34610;44.096;39.070;2023-01-26T16:19:07;80.28;;;30.35;;
48797;SDS011;34610;44.096;39.070;2023-01-26T16:22:20;84.20;;;33.00;;
48797;SDS011;34610;44.096;39.070;2023-01-26T16:25:31;77.22;;;28.58;;
48797;SDS011;34610;44.096;39.070;2023-01-26T16:28:43;69.85;;;27.27;;
48797;SDS011;34610;44.096;39.070;2023-01-26T16:34:55;64.88;;;25.95;;
48797;SDS011;34610;44.096;39.070;2023-01-26T16:38:10;63.65;;;26.02;;
48797;SDS011;34610;44.096;39.070;2023-01-26T16:44:27;62.20;;;25.25;;
48797;SDS011;34610;44.096;39.070;2023-01-26T16:47:34;61.92;;;24.70;;
48797;SDS011;34610;44.096;39.070;2023-01-26T16:50:51;65.65;;;26.10;;
48797;SDS011;34610;44.096;39.070;2023-01-26T16:53:55;57.90;;;23.60;;
48797;SDS011;34610;44.096;39.070;2023-01-26T16:57:35;66.25;;;26.00;;
48797;SDS011;34610;44.096;39.070;2023-01-26T17:00:51;62.75;;;26.45;;
48797;SDS011;34610;44.096;39.070;2023-01-26T17:03:56;62.25;;;24.02;;
48797;SDS011;34610;44.096;39.070;2023-01-26T17:07:08;64.68;;;25.52;;
48797;SDS011;34610;44.096;39.070;2023-01-26T17:10:13;71.47;;;28.60;;
48797;SDS011;34610;44.096;39.070;2023-01-26T17:13:21;78.05;;;29.08;;
48797;SDS011;34610;44.096;39.070;2023-01-26T17:16:33;65.80;;;28.10;;
48797;SDS011;34610;44.096;39.070;2023-01-26T17:19:45;74.05;;;30.15;;
48797;SDS011;34610;44.096;39.070;2023-01-26T17:22:57;70.78;;;28.92;;
48797;SDS011;34610;44.096;39.070;2023-01-26T17:26:18;68.00;;;29.25;;
48797;SDS011;34610;44.096;39.070;2023-01-26T17:29:27;70.88;;;29.98;;
48797;SDS011;34610;44.096;39.070;2023-01-26T17:32:32;73.38;;;31.33;;
48797;SDS011;34610;44.096;39.070;2023-01-26T17:35:47;72.93;;;27.13;;
48797;SDS011;34610;44.096;39.070;2023-01-26T17:38:56;65.55;;;29.10;;
48797;SDS011;34610;44.096;39.070;2023-01-26T17:42:03;60.72;;;24.73;;
48797;SDS011;34610;44.096;39.070;2023-01-26T17:45:23;71.70;;;28.77;;
48797;SDS011;34610;44.096;39.070;2023-01-26T17:48:49;66.28;;;28.02;;
48797;SDS011;34610;44.096;39.070;2023-01-26T17:55:14;66.85;;;26.20;;
48797;SDS011;34610;44.096;39.070;2023-01-26T17:58:30;62.40;;;24.85;;
48797;SDS011;34610;44.096;39.070;2023-01-26T18:01:39;65.03;;;27.63;;
48797;SDS011;34610;44.096;39.070;2023-01-26T18:04:53;73.18;;;28.65;;
48797;SDS011;34610;44.096;39.070;2023-01-26T18:08:04;54.95;;;22.23;;
48797;SDS011;34610;44.096;39.070;2023-01-26T18:11:10;54.85;;;21.35;;
48797;SDS011;34610;44.096;39.070;2023-01-26T18:14:44;39.40;;;16.38;;
48797;SDS011;34610;44.096;39.070;2023-01-26T18:17:58;50.78;;;20.73;;
48797;SDS011;34610;44.096;39.070;2023-01-26T18:21:15;36.70;;;15.30;;
48797;SDS011;34610;44.096;39.070;2023-01-26T18:24:27;38.03;;;15.82;;
48797;SDS011;34610;44.096;39.070;2023-01-26T18:27:36;40.90;;;16.55;;
48797;SDS011;34610;44.096;39.070;2023-01-26T18:30:41;32.38;;;14.70;;
48797;SDS011;34610;44.096;39.070;2023-01-26T18:33:50;46.25;;;17.08;;
48797;SDS011;34610;44.096;39.070;2023-01-26T18:36:57;41.10;;;16.95;;
48797;SDS011;34610;44.096;39.070;2023-01-26T18:40:06;50.53;;;19.88;;
48797;SDS011;34610;44.096;39.070;2023-01-26T18:43:13;45.88;;;18.80;;
48797;SDS011;34610;44.096;39.070;2023-01-26T18:46:18;48.00;;;17.33;;
48797;SDS011;34610;44.096;39.070;2023-01-26T18:49:22;46.78;;;17.13;;
48797;SDS011;34610;44.096;39.070;2023-01-26T18:52:28;41.10;;;17.33;;
48797;SDS011;34610;44.096;39.070;2023-01-26T18:55:43;43.03;;;16.45;;
48797;SDS011;34610;44.096;39.070;2023-01-26T18:58:55;42.60;;;18.38;;
48797;SDS011;34610;44.096;39.070;2023-01-26T19:02:03;43.45;;;18.52;;
48797;SDS011;34610;44.096;39.070;2023-01-26T19:05:15;37.97;;;15.93;;
48797;SDS011;34610;44.096;39.070;2023-01-26T19:08:25;37.60;;;15.32;;
48797;SDS011;34610;44.096;39.070;2023-01-26T19:11:36;40.00;;;15.13;;
48797;SDS011;34610;44.096;39.070;2023-01-26T19:14:40;40.15;;;16.13;;
48797;SDS011;34610;44.096;39.070;2023-01-26T19:17:47;38.58;;;14.45;;
48797;SDS011;34610;44.096;39.070;2023-01-26T19:20:57;35.25;;;14.18;;
48797;SDS011;34610;44.096;39.070;2023-01-26T19:24:02;42.42;;;16.90;;
48797;SDS011;34610;44.096;39.070;2023-01-26T19:27:18;40.95;;;16.70;;
48797;SDS011;34610;44.096;39.070;2023-01-26T19:30:24;36.95;;;14.40;;
48797;SDS011;34610;44.096;39.070;2023-01-26T19:33:33;32.17;;;13.73;;
48797;SDS011;34610;44.096;39.070;2023-01-26T19:36:40;39.08;;;14.75;;
48797;SDS011;34610;44.096;39.070;2023-01-26T19:39:46;32.63;;;15.95;;
48797;SDS011;34610;44.096;39.070;2023-01-26T19:42:51;41.70;;;15.57;;
48797;SDS011;34610;44.096;39.070;2023-01-26T19:49:03;33.65;;;13.95;;
48797;SDS011;34610;44.096;39.070;2023-01-26T19:52:12;27.70;;;11.70;;
48797;SDS011;34610;44.096;39.070;2023-01-26T19:55:17;36.63;;;15.05;;
48797;SDS011;34610;44.096;39.070;2023-01-26T19:58:29;29.38;;;13.73;;
48797;SDS011;34610;44.096;39.070;2023-01-26T20:01:34;37.90;;;12.93;;
48797;SDS011;34610;44.096;39.070;2023-01-26T20:04:38;40.55;;;15.00;;
48797;SDS011;34610;44.096;39.070;2023-01-26T20:07:45;39.53;;;14.60;;
48797;SDS011;34610;44.096;39.070;2023-01-26T20:10:52;32.22;;;12.32;;
48797;SDS011;34610;44.096;39.070;2023-01-26T20:14:00;33.83;;;14.18;;
48797;SDS011;34610;44.096;39.070;2023-01-26T20:17:08;33.30;;;12.52;;
48797;SDS011;34610;44.096;39.070;2023-01-26T20:20:16;34.08;;;13.60;;
48797;SDS011;34610;44.096;39.070;2023-01-26T20:23:21;32.90;;;14.45;;
48797;SDS011;34610;44.096;39.070;2023-01-26T20:26:27;38.45;;;14.13;;
48797;SDS011;34610;44.096;39.070;2023-01-26T20:29:34;41.65;;;14.45;;
48797;SDS011;34610;44.096;39.070;2023-01-26T20:35:46;36.85;;;15.77;;
48797;SDS011;34610;44.096;39.070;2023-01-26T20:38:51;42.08;;;16.15;;
48797;SDS011;34610;44.096;39.070;2023-01-26T20:41:55;39.42;;;14.10;;
48797;SDS011;34610;44.096;39.070;2023-01-26T20:45:04;33.65;;;13.80;;
48797;SDS011;34610;44.096;39.070;2023-01-26T20:48:09;34.22;;;13.32;;
48797;SDS011;34610;44.096;39.070;2023-01-26T20:51:18;33.72;;;13.20;;
48797;SDS011;34610;44.096;39.070;2023-01-26T20:54:28;30.58;;;13.18;;
48797;SDS011;34610;44.096;39.070;2023-01-26T20:57:37;30.45;;;12.88;;
48797;SDS011;34610;44.096;39.070;2023-01-26T21:00:43;31.50;;;12.70;;
48797;SDS011;34610;44.096;39.070;2023-01-26T21:03:48;29.65;;;12.27;;
48797;SDS011;34610;44.096;39.070;2023-01-26T21:06:53;25.08;;;11.20;;